Time;durP1;ratioP1;P1;durP2;ratioP2;P2;SDS_P1;SDS_P2;PMS_P1;PMS_P2;Temp;Humidity;BMP_temperature;BMP_pressure;BME280_temperature;BME280_humidity;BME280_pressure;Samples;Min_cycle;Max_cycle;Signal;HPM_P1;HPM_P2
2022/01/29 00:00:24;;;;;;;;;;;3.40;99.90;;;;;;4980285;28;19933;-75
2022/01/29 00:02:51;;;;;;;;;;;3.50;99.90;;;;;;4975141;28;20035;-75
2022/01/29 00:05:17;;;;;;;;;;;3.40;99.90;;;;;;4982897;28;19922;-75
2022/01/29 00:07:44;;;;;;;;;;;3.40;99.90;;;;;;4979289;28;19922;-75
2022/01/29 00:10:12;;;;;;;;;;;3.40;99.90;;;;;;4969037;28;20012;-75
2022/01/29 00:12:38;;;;;;;;;;;3.40;99.90;;;;;;4984660;28;19922;-75
2022/01/29 00:15:05;;;;;;;;;;;3.40;99.90;;;;;;4984004;28;19936;-75
2022/01/29 00:17:33;;;;;;;;;;;3.40;99.90;;;;;;4982264;28;19922;-75
2022/01/29 00:20:00;;;;;;;;;;;3.50;99.90;;;;;;4979604;28;19933;-75
2022/01/29 00:22:27;;;;;;;;;;;3.40;99.90;;;;;;4981208;28;19922;-75
2022/01/29 00:24:56;;;;;;;;;;;3.40;99.90;;;;;;4984777;28;19921;-75
2022/01/29 00:27:25;;;;;;;;;;;3.50;99.90;;;;;;4985732;28;19922;-75
2022/01/29 00:29:52;;;;;;;;;;;3.50;99.90;;;;;;4983560;28;19949;-75
2022/01/29 00:32:18;;;;;;;;;;;3.60;99.90;;;;;;4975170;28;19922;-75
2022/01/29 00:34:48;;;;;;;;;;;3.60;99.90;;;;;;4982656;28;20394;-75
2022/01/29 00:37:16;;;;;;;;;;;3.60;99.90;;;;;;4981800;28;20408;-75
2022/01/29 00:39:43;;;;;;;;;;;3.60;99.90;;;;;;4983789;28;19941;-75
2022/01/29 00:42:10;;;;;;;;;;;3.70;99.90;;;;;;4982340;28;19933;-75
2022/01/29 00:44:44;;;;;;;;;;;3.70;99.90;;;;;;4981072;28;20221;-75
2022/01/29 00:47:11;;;;;;;;;;;3.70;99.90;;;;;;4977266;28;19926;-75
2022/01/29 00:49:41;;;;;;;;;;;3.70;99.90;;;;;;4980822;28;19944;-75
2022/01/29 00:52:07;;;;;;;;;;;3.70;99.90;;;;;;4977569;28;19941;-75
2022/01/29 00:54:34;;;;;;;;;;;3.70;99.90;;;;;;4982298;28;19932;-75
2022/01/29 00:57:04;;;;;;;;;;;3.70;99.90;;;;;;4981350;28;19937;-75
2022/01/29 00:59:32;;;;;;;;;;;3.70;99.90;;;;;;4984237;28;19936;-76
2022/01/29 01:01:59;;;;;;;;;;;3.60;99.90;;;;;;4990068;28;19934;-75
2022/01/29 01:04:25;;;;;;;;;;;3.60;99.90;;;;;;4978299;28;19926;-75
2022/01/29 01:06:54;;;;;;;;;;;3.60;99.90;;;;;;4982335;28;19934;-75
2022/01/29 01:09:20;;;;;;;;;;;3.60;99.90;;;;;;4975899;28;19936;-75
2022/01/29 01:11:47;;;;;;;;;;;3.60;99.90;;;;;;4976015;28;19933;-75
2022/01/29 01:14:14;;;;;;;;;;;3.60;99.90;;;;;;4980550;28;20417;-75
2022/01/29 01:16:40;;;;;;;;;;;3.60;99.90;;;;;;4977836;28;19930;-75
2022/01/29 01:19:07;;;;;;;;;;;3.60;99.90;;;;;;4984794;28;19936;-75
2022/01/29 01:21:34;;;;;;;;;;;3.60;99.90;;;;;;4982835;28;20453;-75
2022/01/29 01:24:00;;;;;;;;;;;3.70;99.90;;;;;;4978168;28;19926;-76
2022/01/29 01:26:27;;;;;;;;;;;3.70;99.90;;;;;;4979054;28;19927;-75
2022/01/29 01:28:53;;;;;;;;;;;3.70;99.90;;;;;;4976612;28;19949;-75
2022/01/29 01:31:20;;;;;;;;;;;3.70;99.90;;;;;;4994031;28;19929;-75
2022/01/29 01:33:48;;;;;;;;;;;3.70;99.90;;;;;;4982363;28;19941;-75
2022/01/29 01:36:18;;;;;;;;;;;3.70;99.90;;;;;;4999676;28;19925;-75
2022/01/29 01:38:52;;;;;;;;;;;3.70;99.90;;;;;;4980216;28;19937;-75
2022/01/29 01:41:25;;;;;;;;;;;3.60;99.90;;;;;;4976636;28;19933;-75
2022/01/29 01:43:58;;;;;;;;;;;3.60;99.90;;;;;;4981572;28;19934;-75
2022/01/29 01:46:25;;;;;;;;;;;3.60;99.90;;;;;;4983213;28;19961;-75
2022/01/29 01:48:52;;;;;;;;;;;3.60;99.90;;;;;;4974845;28;20375;-75
2022/01/29 01:51:19;;;;;;;;;;;3.60;99.90;;;;;;4982450;28;19933;-75
2022/01/29 01:53:46;;;;;;;;;;;3.60;99.90;;;;;;4980900;28;20425;-75
2022/01/29 01:56:12;;;;;;;;;;;3.50;99.90;;;;;;4984682;28;19928;-75
2022/01/29 01:58:39;;;;;;;;;;;3.40;99.90;;;;;;4977905;28;19928;-75
2022/01/29 02:01:06;;;;;;;;;;;3.40;99.90;;;;;;4979650;28;19928;-75
2022/01/29 02:03:32;;;;;;;;;;;3.40;99.90;;;;;;4981604;28;19928;-75
2022/01/29 02:05:59;;;;;;;;;;;3.30;99.90;;;;;;4983919;28;19936;-75
2022/01/29 02:08:30;;;;;;;;;;;3.30;99.90;;;;;;4982064;28;20491;-76
2022/01/29 02:11:03;;;;;;;;;;;3.30;99.90;;;;;;4995351;28;19943;-75
2022/01/29 02:13:30;;;;;;;;;;;3.40;99.90;;;;;;4975643;28;19922;-75
2022/01/29 02:15:57;;;;;;;;;;;3.30;99.90;;;;;;4980537;28;19926;-75
2022/01/29 02:18:24;;;;;;;;;;;3.30;99.90;;;;;;4986170;28;19928;-75
2022/01/29 02:20:53;;;;;;;;;;;3.30;99.90;;;;;;4998261;28;19922;-75
2022/01/29 02:23:20;;;;;;;;;;;3.30;99.90;;;;;;4981326;28;19922;-75
2022/01/29 02:25:49;;;;;;;;;;;3.30;99.90;;;;;;4978309;28;19975;-75
2022/01/29 02:28:36;;;;;;;;;;;3.30;99.90;;;;;;4984307;28;19922;-75
2022/01/29 02:31:04;;;;;;;;;;;3.30;99.90;;;;;;4975595;28;19933;-75
2022/01/29 02:33:32;;;;;;;;;;;3.30;99.90;;;;;;4982074;28;19922;-75
2022/01/29 02:35:59;;;;;;;;;;;3.30;99.90;;;;;;4981281;28;20586;-75
2022/01/29 02:38:26;;;;;;;;;;;3.30;99.90;;;;;;4974002;28;19926;-75
2022/01/29 02:40:58;;;;;;;;;;;3.30;99.90;;;;;;4981921;28;20012;-75
2022/01/29 02:43:41;;;;;;;;;;;3.30;99.90;;;;;;4985390;28;19928;-75
2022/01/29 02:46:41;;;;;;;;;;;3.30;99.90;;;;;;4984648;28;19925;-75
2022/01/29 02:48:58;;;;;;;;;;;3.20;99.90;;;;;;4978125;28;19921;-75
2022/01/29 02:51:25;;;;;;;;;;;3.20;99.90;;;;;;4980650;28;19961;-75
2022/01/29 02:53:52;;;;;;;;;;;3.20;99.90;;;;;;4978862;28;19925;-75
2022/01/29 02:56:18;;;;;;;;;;;3.20;99.90;;;;;;4979314;28;19922;-75
2022/01/29 02:58:46;;;;;;;;;;;3.20;99.90;;;;;;4997448;28;20100;-76
2022/01/29 03:01:13;;;;;;;;;;;3.20;99.90;;;;;;4980697;28;19951;-75
2022/01/29 03:03:40;;;;;;;;;;;3.20;99.90;;;;;;4976943;28;19922;-76
2022/01/29 03:06:15;;;;;;;;;;;3.20;99.90;;;;;;4974235;28;19994;-76
2022/01/29 03:08:42;;;;;;;;;;;3.30;99.90;;;;;;4982746;28;19925;-76
2022/01/29 03:11:11;;;;;;;;;;;3.30;99.90;;;;;;4976277;28;20277;-76
2022/01/29 03:13:41;;;;;;;;;;;3.30;99.90;;;;;;4977125;28;20008;-76
2022/01/29 03:16:07;;;;;;;;;;;3.30;99.90;;;;;;4975292;28;19925;-76
2022/01/29 03:18:34;;;;;;;;;;;3.30;99.90;;;;;;4979143;28;19934;-74
2022/01/29 03:21:01;;;;;;;;;;;3.30;99.90;;;;;;4980441;28;19926;-74
2022/01/29 03:23:27;;;;;;;;;;;3.30;99.90;;;;;;4977382;28;19922;-74
2022/01/29 03:25:54;;;;;;;;;;;3.40;99.90;;;;;;4983155;28;19922;-74
2022/01/29 03:28:20;;;;;;;;;;;3.30;99.90;;;;;;4985711;28;19922;-74
2022/01/29 03:30:47;;;;;;;;;;;3.40;99.90;;;;;;4975759;28;20368;-74
2022/01/29 03:33:14;;;;;;;;;;;3.40;99.90;;;;;;4983479;28;19968;-74
2022/01/29 03:35:40;;;;;;;;;;;3.40;99.90;;;;;;4979390;28;20459;-74
2022/01/29 03:38:07;;;;;;;;;;;3.40;99.90;;;;;;4980032;28;19930;-75
2022/01/29 03:40:35;;;;;;;;;;;3.40;99.90;;;;;;4983556;28;19921;-76
2022/01/29 03:43:10;;;;;;;;;;;3.50;99.90;;;;;;4981362;28;20333;-77
2022/01/29 03:45:36;;;;;;;;;;;3.50;99.90;;;;;;4986534;28;19926;-77
2022/01/29 03:48:03;;;;;;;;;;;3.50;99.90;;;;;;4978813;28;20387;-77
2022/01/29 03:50:30;;;;;;;;;;;3.50;99.90;;;;;;4985112;28;20007;-76
2022/01/29 03:52:57;;;;;;;;;;;3.60;99.90;;;;;;4984916;28;19926;-76
2022/01/29 03:55:23;;;;;;;;;;;3.60;99.90;;;;;;4985954;28;20339;-76
2022/01/29 03:57:50;;;;;;;;;;;3.60;99.90;;;;;;4982049;28;19928;-76
2022/01/29 04:00:17;;;;;;;;;;;3.60;99.90;;;;;;4980538;28;19960;-76
2022/01/29 04:02:43;;;;;;;;;;;3.60;99.90;;;;;;4979296;28;19930;-74
2022/01/29 04:05:11;;;;;;;;;;;3.60;99.90;;;;;;4973363;28;19968;-76
2022/01/29 04:07:38;;;;;;;;;;;3.60;99.90;;;;;;4977732;28;20385;-75
2022/01/29 04:10:05;;;;;;;;;;;3.60;99.90;;;;;;4981356;28;20000;-75
2022/01/29 04:12:38;;;;;;;;;;;3.60;99.90;;;;;;4979643;28;19937;-75
2022/01/29 04:15:08;;;;;;;;;;;3.60;99.90;;;;;;4980141;28;19921;-75
2022/01/29 04:17:35;;;;;;;;;;;3.60;99.90;;;;;;4982817;28;19928;-75
2022/01/29 04:20:03;;;;;;;;;;;3.60;99.90;;;;;;4979748;28;19921;-75
2022/01/29 04:22:30;;;;;;;;;;;3.60;99.90;;;;;;4978422;28;19922;-74
2022/01/29 04:24:56;;;;;;;;;;;3.60;99.90;;;;;;4979276;28;19922;-75
2022/01/29 04:27:32;;;;;;;;;;;3.60;99.90;;;;;;4977157;28;20388;-75
2022/01/29 04:30:02;;;;;;;;;;;3.60;99.90;;;;;;4975922;28;19928;-75
2022/01/29 04:35:15;;;;;;;;;;;3.60;99.90;;;;;;4955914;28;19945;-76
2022/01/29 04:37:49;;;;;;;;;;;3.60;99.90;;;;;;4995792;28;19987;-75
2022/01/29 04:40:17;;;;;;;;;;;3.60;99.90;;;;;;4980268;28;20301;-76
2022/01/29 04:42:46;;;;;;;;;;;3.60;99.90;;;;;;4967023;28;19926;-76
2022/01/29 04:45:13;;;;;;;;;;;3.50;99.90;;;;;;4989797;28;19926;-75
2022/01/29 04:47:45;;;;;;;;;;;3.60;99.90;;;;;;4982745;28;20361;-74
2022/01/29 04:50:12;;;;;;;;;;;3.60;99.90;;;;;;4978467;28;20487;-74
2022/01/29 04:52:39;;;;;;;;;;;3.50;99.90;;;;;;4978916;28;19922;-75
2022/01/29 04:55:06;;;;;;;;;;;3.50;99.90;;;;;;4983665;28;20296;-75
2022/01/29 04:57:32;;;;;;;;;;;3.50;99.90;;;;;;4980725;28;19930;-75
2022/01/29 05:00:00;;;;;;;;;;;3.50;99.90;;;;;;4982029;28;19932;-75
2022/01/29 05:02:27;;;;;;;;;;;3.50;99.90;;;;;;4980552;28;19928;-75
2022/01/29 05:04:54;;;;;;;;;;;3.50;99.90;;;;;;4982409;28;19922;-74
2022/01/29 05:07:21;;;;;;;;;;;3.50;99.90;;;;;;4983853;28;19928;-75
2022/01/29 05:09:47;;;;;;;;;;;3.50;99.90;;;;;;4983630;28;19921;-74
2022/01/29 05:12:20;;;;;;;;;;;3.50;99.90;;;;;;4983755;28;20125;-75
2022/01/29 05:15:05;;;;;;;;;;;3.50;99.90;;;;;;4985489;28;19922;-75
2022/01/29 05:28:40;;;;;;;;;;;3.40;99.90;;;;;;4977333;28;19922;-75
2022/01/29 05:31:06;;;;;;;;;;;3.40;99.90;;;;;;4984346;28;19929;-75
2022/01/29 05:33:33;;;;;;;;;;;3.30;99.90;;;;;;4975097;28;19925;-75
2022/01/29 05:35:59;;;;;;;;;;;3.30;99.90;;;;;;4984155;28;19926;-75
2022/01/29 05:38:27;;;;;;;;;;;3.30;99.90;;;;;;4982391;28;19951;-74
2022/01/29 05:40:55;;;;;;;;;;;3.30;99.90;;;;;;4983053;28;19931;-74
2022/01/29 05:43:21;;;;;;;;;;;3.30;99.90;;;;;;4981878;28;19922;-75
2022/01/29 05:45:48;;;;;;;;;;;3.20;99.90;;;;;;4982589;28;19922;-74
2022/01/29 05:48:15;;;;;;;;;;;3.20;99.90;;;;;;4982483;28;19929;-75
2022/01/29 05:50:42;;;;;;;;;;;3.30;99.90;;;;;;4984727;28;19921;-75
2022/01/29 05:53:08;;;;;;;;;;;3.20;99.90;;;;;;4982189;28;19921;-75
2022/01/29 05:55:35;;;;;;;;;;;3.20;99.90;;;;;;4974528;28;20025;-75
2022/01/29 05:58:05;;;;;;;;;;;3.30;99.90;;;;;;4981887;28;19922;-75
2022/01/29 06:00:32;;;;;;;;;;;3.30;99.90;;;;;;4981776;28;19945;-77
2022/01/29 06:03:00;;;;;;;;;;;3.20;99.90;;;;;;4981134;28;19933;-75
2022/01/29 06:05:27;;;;;;;;;;;3.30;99.90;;;;;;4983202;28;19921;-75
2022/01/29 06:07:53;;;;;;;;;;;3.30;99.90;;;;;;4980103;28;19930;-75
2022/01/29 06:10:20;;;;;;;;;;;3.30;99.90;;;;;;4978221;28;19928;-75
2022/01/29 06:13:00;;;;;;;;;;;3.30;99.90;;;;;;4976517;28;19928;-75
2022/01/29 06:15:27;;;;;;;;;;;3.30;99.90;;;;;;4979990;28;19945;-75
2022/01/29 06:17:54;;;;;;;;;;;3.30;99.90;;;;;;4981250;28;19928;-75
2022/01/29 06:20:21;;;;;;;;;;;3.20;99.90;;;;;;4975845;28;19928;-75
2022/01/29 06:22:55;;;;;;;;;;;3.20;99.90;;;;;;4976848;28;19968;-75
2022/01/29 06:25:24;;;;;;;;;;;3.30;99.90;;;;;;4976792;28;19922;-74
2022/01/29 06:27:53;;;;;;;;;;;3.30;99.90;;;;;;4968759;28;20383;-75
2022/01/29 06:30:24;;;;;;;;;;;3.30;99.90;;;;;;4974044;28;19988;-75
2022/01/29 06:32:51;;;;;;;;;;;3.30;99.90;;;;;;4977035;28;19928;-75
2022/01/29 06:35:17;;;;;;;;;;;3.30;99.90;;;;;;4992982;28;19930;-75
2022/01/29 06:37:44;;;;;;;;;;;3.30;99.90;;;;;;4973245;28;20304;-75
2022/01/29 06:40:11;;;;;;;;;;;3.30;99.90;;;;;;4974710;28;19922;-74
2022/01/29 06:42:37;;;;;;;;;;;3.30;99.90;;;;;;4971160;28;19930;-74
2022/01/29 06:45:05;;;;;;;;;;;3.30;99.90;;;;;;4970579;28;19934;-75
2022/01/29 06:47:31;;;;;;;;;;;3.30;99.90;;;;;;4980765;28;19922;-74
2022/01/29 06:49:58;;;;;;;;;;;3.30;99.90;;;;;;4977747;28;19921;-75
2022/01/29 06:52:24;;;;;;;;;;;3.40;99.90;;;;;;4975808;28;19932;-75
2022/01/29 06:54:51;;;;;;;;;;;3.30;99.90;;;;;;4981025;28;20276;-74
2022/01/29 06:57:18;;;;;;;;;;;3.30;99.90;;;;;;5010690;28;19937;-74
2022/01/29 06:59:44;;;;;;;;;;;3.30;99.90;;;;;;4983210;28;19952;-74
2022/01/29 07:02:11;;;;;;;;;;;3.30;99.90;;;;;;4977981;28;19933;-74
2022/01/29 07:04:38;;;;;;;;;;;3.30;99.90;;;;;;4976300;28;19921;-75
2022/01/29 07:07:04;;;;;;;;;;;3.40;99.90;;;;;;4979191;28;19928;-75
2022/01/29 07:09:31;;;;;;;;;;;3.30;99.90;;;;;;4972773;28;20319;-75
2022/01/29 07:12:07;;;;;;;;;;;3.40;99.90;;;;;;4982132;28;19933;-74
2022/01/29 07:14:38;;;;;;;;;;;3.40;99.90;;;;;;4981141;28;19921;-74
2022/01/29 07:17:09;;;;;;;;;;;3.30;99.90;;;;;;4976578;28;20576;-74
2022/01/29 07:19:36;;;;;;;;;;;3.30;99.90;;;;;;4982922;28;19949;-74
2022/01/29 07:22:04;;;;;;;;;;;3.30;99.90;;;;;;4974338;28;20036;-75
2022/01/29 07:24:33;;;;;;;;;;;3.30;99.90;;;;;;4980222;28;20435;-75
2022/01/29 07:27:02;;;;;;;;;;;3.30;99.90;;;;;;4986364;28;19967;-75
2022/01/29 07:29:29;;;;;;;;;;;3.40;99.90;;;;;;4983314;28;19930;-75
2022/01/29 07:31:59;;;;;;;;;;;3.40;99.90;;;;;;4979425;28;19944;-74
2022/01/29 07:34:26;;;;;;;;;;;3.40;99.90;;;;;;4978059;28;20388;-75
2022/01/29 07:36:53;;;;;;;;;;;3.40;99.90;;;;;;4979708;28;19921;-75
2022/01/29 07:39:23;;;;;;;;;;;3.40;99.90;;;;;;4977541;28;20713;-75
2022/01/29 07:41:50;;;;;;;;;;;3.40;99.90;;;;;;4986093;28;19922;-74
2022/01/29 07:44:17;;;;;;;;;;;3.50;99.90;;;;;;4979113;28;19952;-75
2022/01/29 07:46:46;;;;;;;;;;;3.50;99.90;;;;;;4979241;28;19983;-74
2022/01/29 07:49:12;;;;;;;;;;;3.50;99.90;;;;;;4977870;28;19926;-75
2022/01/29 07:51:39;;;;;;;;;;;3.50;99.90;;;;;;4982487;28;20386;-75
2022/01/29 07:54:06;;;;;;;;;;;3.50;99.90;;;;;;4979887;28;19945;-75
2022/01/29 07:56:33;;;;;;;;;;;3.60;99.90;;;;;;4986742;28;19926;-75
2022/01/29 07:59:00;;;;;;;;;;;3.70;99.90;;;;;;4979418;28;20364;-75
2022/01/29 08:01:30;;;;;;;;;;;3.70;99.90;;;;;;4982386;28;20337;-75
2022/01/29 08:03:58;;;;;;;;;;;3.80;99.90;;;;;;4982269;28;19922;-75
2022/01/29 08:06:31;;;;;;;;;;;3.80;99.90;;;;;;4976666;28;19922;-73
2022/01/29 08:09:01;;;;;;;;;;;3.90;99.90;;;;;;4998382;28;20399;-75
2022/01/29 08:11:28;;;;;;;;;;;3.90;99.90;;;;;;4984628;28;19922;-75
2022/01/29 08:13:54;;;;;;;;;;;4.00;99.90;;;;;;4984176;28;19965;-75
2022/01/29 08:16:21;;;;;;;;;;;4.00;99.90;;;;;;4981064;28;19952;-75
2022/01/29 08:18:48;;;;;;;;;;;4.10;99.90;;;;;;4978546;28;19984;-77
2022/01/29 08:21:15;;;;;;;;;;;4.20;99.90;;;;;;4975206;28;19922;-75
2022/01/29 08:23:42;;;;;;;;;;;4.20;99.90;;;;;;4985678;28;19927;-75
2022/01/29 08:26:10;;;;;;;;;;;4.20;99.90;;;;;;5014507;28;20092;-75
2022/01/29 08:28:36;;;;;;;;;;;4.20;99.90;;;;;;4979408;28;19922;-75
2022/01/29 08:31:10;;;;;;;;;;;4.20;99.90;;;;;;4985105;28;20307;-75
2022/01/29 08:33:38;;;;;;;;;;;4.20;99.90;;;;;;4980335;28;19930;-74
2022/01/29 08:36:04;;;;;;;;;;;4.20;99.90;;;;;;4981366;28;19922;-74
2022/01/29 08:38:31;;;;;;;;;;;4.10;99.90;;;;;;4981547;28;20403;-77
2022/01/29 08:40:58;;;;;;;;;;;4.10;99.90;;;;;;4980590;28;19921;-76
2022/01/29 08:43:26;;;;;;;;;;;4.10;99.90;;;;;;4988493;28;20005;-76
2022/01/29 08:45:53;;;;;;;;;;;4.20;99.90;;;;;;4976434;28;19976;-76
2022/01/29 08:48:23;;;;;;;;;;;4.20;99.90;;;;;;4976926;28;20298;-76
2022/01/29 08:50:50;;;;;;;;;;;4.20;99.90;;;;;;4981900;28;19932;-76
2022/01/29 08:53:17;;;;;;;;;;;4.30;99.90;;;;;;4983982;28;19928;-76
2022/01/29 08:55:44;;;;;;;;;;;4.30;99.90;;;;;;4982881;28;19922;-76
2022/01/29 08:58:11;;;;;;;;;;;4.50;99.90;;;;;;4981810;28;19926;-77
2022/01/29 09:00:39;;;;;;;;;;;4.60;99.90;;;;;;4980529;28;19930;-76
2022/01/29 09:03:14;;;;;;;;;;;4.80;99.90;;;;;;4971961;28;20146;-77
2022/01/29 09:05:42;;;;;;;;;;;4.80;99.90;;;;;;4974517;28;19921;-77
2022/01/29 09:08:09;;;;;;;;;;;4.80;99.90;;;;;;4978174;28;19944;-76
2022/01/29 09:10:36;;;;;;;;;;;4.90;99.90;;;;;;4979639;28;19922;-77
2022/01/29 09:13:03;;;;;;;;;;;4.80;99.90;;;;;;4977315;28;19934;-77
2022/01/29 09:15:30;;;;;;;;;;;4.80;99.90;;;;;;4968065;28;19925;-77
2022/01/29 09:17:57;;;;;;;;;;;4.80;99.90;;;;;;4975589;28;20226;-77
2022/01/29 09:20:23;;;;;;;;;;;4.90;99.90;;;;;;4982793;28;20296;-76
2022/01/29 09:22:50;;;;;;;;;;;4.90;99.90;;;;;;4974028;28;20028;-76
2022/01/29 09:25:20;;;;;;;;;;;4.90;99.90;;;;;;4979592;28;19941;-76
2022/01/29 09:27:47;;;;;;;;;;;5.00;99.90;;;;;;4977086;28;19932;-76
2022/01/29 09:30:14;;;;;;;;;;;5.10;99.90;;;;;;4976371;28;19928;-76
2022/01/29 09:32:46;;;;;;;;;;;5.10;99.90;;;;;;4971511;28;20354;-76
2022/01/29 09:35:17;;;;;;;;;;;5.10;99.90;;;;;;4975967;28;20288;-76
2022/01/29 09:37:45;;;;;;;;;;;5.10;99.90;;;;;;4977779;28;19926;-76
2022/01/29 09:40:15;;;;;;;;;;;5.10;99.90;;;;;;4976039;28;19930;-76
2022/01/29 09:42:46;;;;;;;;;;;5.20;99.90;;;;;;4982200;28;19944;-77
2022/01/29 09:45:14;;;;;;;;;;;5.20;99.90;;;;;;4972926;28;19942;-77
2022/01/29 09:47:42;;;;;;;;;;;5.30;99.90;;;;;;4976532;28;19933;-76
2022/01/29 09:50:10;;;;;;;;;;;5.20;99.90;;;;;;4971370;28;19925;-77
2022/01/29 09:52:36;;;;;;;;;;;5.20;99.90;;;;;;4981021;28;19945;-77
2022/01/29 09:55:09;;;;;;;;;;;5.20;99.90;;;;;;4974896;28;19968;-76
2022/01/29 09:57:35;;;;;;;;;;;5.10;99.90;;;;;;4975018;28;20380;-76
2022/01/29 10:00:06;;;;;;;;;;;5.10;99.90;;;;;;4982269;28;19928;-76
2022/01/29 10:02:36;;;;;;;;;;;5.20;99.90;;;;;;4973245;28;19930;-77
2022/01/29 10:05:04;;;;;;;;;;;5.20;99.90;;;;;;4976205;28;19929;-76
2022/01/29 10:07:32;;;;;;;;;;;5.10;99.90;;;;;;4978936;28;19930;-77
2022/01/29 10:10:01;;;;;;;;;;;5.10;99.90;;;;;;4980033;28;19922;-76
2022/01/29 10:12:31;;;;;;;;;;;5.10;99.90;;;;;;4980350;28;19930;-76
2022/01/29 10:14:58;;;;;;;;;;;5.20;99.90;;;;;;4975414;28;20559;-76
2022/01/29 10:17:41;;;;;;;;;;;5.20;99.90;;;;;;4977754;28;19926;-77
2022/01/29 10:20:16;;;;;;;;;;;5.10;99.90;;;;;;4965050;28;19952;-76
2022/01/29 10:22:53;;;;;;;;;;;5.10;99.90;;;;;;4977407;28;19922;-76
2022/01/29 10:25:23;;;;;;;;;;;5.10;99.90;;;;;;4980464;28;19922;-76
2022/01/29 10:28:06;;;;;;;;;;;5.10;99.90;;;;;;4993682;28;19984;-76
2022/01/29 10:30:35;;;;;;;;;;;5.10;99.90;;;;;;4979042;28;20271;-76
2022/01/29 10:33:20;;;;;;;;;;;5.10;99.90;;;;;;4974703;28;20616;-76
2022/01/29 10:35:48;;;;;;;;;;;4.90;99.90;;;;;;4988763;28;19929;-76
2022/01/29 10:38:18;;;;;;;;;;;4.90;99.90;;;;;;4982408;28;20318;-76
2022/01/29 10:40:45;;;;;;;;;;;4.90;99.90;;;;;;4978146;28;19922;-76
2022/01/29 10:43:12;;;;;;;;;;;4.90;99.90;;;;;;4975771;28;19922;-76
2022/01/29 10:45:44;;;;;;;;;;;5.00;99.90;;;;;;4977677;28;20017;-76
2022/01/29 10:48:10;;;;;;;;;;;4.90;99.90;;;;;;4977571;28;20433;-76
2022/01/29 10:50:37;;;;;;;;;;;4.90;99.90;;;;;;4976146;28;20445;-74
2022/01/29 10:53:24;;;;;;;;;;;4.90;99.90;;;;;;4979597;28;19926;-75
2022/01/29 10:55:58;;;;;;;;;;;4.90;99.90;;;;;;4973556;28;19922;-75
2022/01/29 10:58:25;;;;;;;;;;;4.80;99.90;;;;;;4983422;28;19922;-76
2022/01/29 11:01:10;;;;;;;;;;;4.80;99.90;;;;;;4984145;28;19926;-75
2022/01/29 11:03:42;;;;;;;;;;;4.90;99.90;;;;;;4979868;28;20273;-75
2022/01/29 11:06:10;;;;;;;;;;;4.90;99.90;;;;;;4980676;28;19930;-75
2022/01/29 11:08:38;;;;;;;;;;;4.80;99.90;;;;;;4985165;28;19929;-75
2022/01/29 11:11:06;;;;;;;;;;;4.80;99.90;;;;;;4977462;28;19922;-75
2022/01/29 11:13:43;;;;;;;;;;;4.80;99.90;;;;;;4981453;28;20445;-76
2022/01/29 11:16:11;;;;;;;;;;;4.90;99.90;;;;;;4982837;28;20281;-75
2022/01/29 11:18:43;;;;;;;;;;;4.90;99.90;;;;;;4978649;28;19928;-75
2022/01/29 11:21:10;;;;;;;;;;;4.90;99.90;;;;;;4981891;28;19975;-75
2022/01/29 11:23:40;;;;;;;;;;;5.00;99.90;;;;;;4976488;28;20414;-76
2022/01/29 11:26:06;;;;;;;;;;;5.10;99.90;;;;;;4989347;28;19929;-76
2022/01/29 11:28:34;;;;;;;;;;;5.30;99.90;;;;;;4981566;28;19940;-76
2022/01/29 11:31:10;;;;;;;;;;;5.30;99.90;;;;;;4976841;28;19928;-75
2022/01/29 11:33:57;;;;;;;;;;;5.40;99.90;;;;;;4977277;28;19933;-75
2022/01/29 11:36:43;;;;;;;;;;;5.40;99.90;;;;;;4976578;28;19930;-75
2022/01/29 11:39:26;;;;;;;;;;;5.30;99.90;;;;;;4978189;28;19922;-75
2022/01/29 11:42:12;;;;;;;;;;;5.10;99.90;;;;;;4974998;28;19929;-75
2022/01/29 11:44:39;;;;;;;;;;;5.00;99.90;;;;;;4973474;28;20426;-75
2022/01/29 11:47:25;;;;;;;;;;;4.80;99.90;;;;;;4976369;28;20019;-75
2022/01/29 11:49:52;;;;;;;;;;;4.80;99.90;;;;;;4981040;28;19933;-75
2022/01/29 11:52:25;;;;;;;;;;;4.70;99.90;;;;;;4979822;28;19922;-76
2022/01/29 11:55:05;;;;;;;;;;;4.60;99.90;;;;;;4985039;28;19922;-75
2022/01/29 11:57:32;;;;;;;;;;;4.60;99.90;;;;;;4988707;28;19960;-75
2022/01/29 12:00:28;;;;;;;;;;;4.60;99.90;;;;;;4978781;28;19922;-76
2022/01/29 12:02:55;;;;;;;;;;;4.60;99.90;;;;;;5053877;28;19921;-75
2022/01/29 12:06:19;;;;;;;;;;;4.60;99.90;;;;;;5058364;28;19959;-75
2022/01/29 12:09:04;;;;;;;;;;;4.60;99.90;;;;;;5047452;28;19935;-75
2022/01/29 12:11:34;;;;;;;;;;;4.50;99.90;;;;;;5057201;28;19920;-74
2022/01/29 12:14:13;;;;;;;;;;;4.50;99.90;;;;;;5058512;28;19920;-74
2022/01/29 12:16:59;;;;;;;;;;;4.50;99.90;;;;;;5058372;28;19921;-74
2022/01/29 12:19:36;;;;;;;;;;;4.40;99.90;;;;;;5059071;28;20260;-74
2022/01/29 12:22:16;;;;;;;;;;;4.40;99.90;;;;;;5057108;28;19921;-74
2022/01/29 12:24:59;;;;;;;;;;;4.40;99.90;;;;;;5056169;28;20276;-75
2022/01/29 12:27:46;;;;;;;;;;;4.50;99.90;;;;;;5054633;28;20211;-75
2022/01/29 12:30:15;;;;;;;;;;;4.60;99.90;;;;;;5055438;28;19930;-75
2022/01/29 12:32:53;;;;;;;;;;;4.60;99.90;;;;;;5050287;28;20471;-75
2022/01/29 12:35:20;;;;;;;;;;;4.60;99.90;;;;;;5042706;28;19920;-75
2022/01/29 12:37:53;;;;;;;;;;;4.60;99.90;;;;;;5042210;28;19920;-75
2022/01/29 12:40:21;;;;;;;;;;;4.60;99.90;;;;;;4985213;28;20475;-75
2022/01/29 12:42:59;;;;;;;;;;;4.60;99.90;;;;;;4977983;28;19932;-75
2022/01/29 12:45:31;;;;;;;;;;;4.70;99.90;;;;;;4980371;28;19930;-75
2022/01/29 12:48:10;;;;;;;;;;;4.70;99.90;;;;;;4974131;28;20016;-75
2022/01/29 12:50:38;;;;;;;;;;;4.70;99.90;;;;;;5003474;28;19925;-75
2022/01/29 12:53:16;;;;;;;;;;;4.70;99.90;;;;;;4979467;28;19929;-75
2022/01/29 12:56:01;;;;;;;;;;;4.70;99.90;;;;;;4981317;28;19925;-75
2022/01/29 12:58:29;;;;;;;;;;;4.80;99.90;;;;;;4978869;28;20310;-75
2022/01/29 13:01:04;;;;;;;;;;;4.80;99.90;;;;;;4975160;28;19922;-75
2022/01/29 13:03:33;;;;;;;;;;;4.80;99.90;;;;;;4977848;28;20368;-75
2022/01/29 13:06:13;;;;;;;;;;;4.80;99.90;;;;;;4977324;28;19925;-76
2022/01/29 13:08:40;;;;;;;;;;;4.90;99.90;;;;;;4976958;28;19925;-75
2022/01/29 13:11:20;;;;;;;;;;;4.90;99.90;;;;;;4977047;28;19932;-76
2022/01/29 13:13:52;;;;;;;;;;;4.90;99.90;;;;;;4977648;28;20369;-76
2022/01/29 13:16:29;;;;;;;;;;;5.00;99.90;;;;;;4977821;28;19922;-76
2022/01/29 13:18:56;;;;;;;;;;;5.00;99.90;;;;;;4978483;28;19932;-76
2022/01/29 13:21:26;;;;;;;;;;;5.00;99.90;;;;;;4975467;28;19925;-76
2022/01/29 13:23:56;;;;;;;;;;;5.00;99.90;;;;;;4973829;28;19921;-75
2022/01/29 13:26:30;;;;;;;;;;;4.90;99.90;;;;;;4987510;28;19929;-75
2022/01/29 13:28:59;;;;;;;;;;;4.90;99.90;;;;;;4979891;28;20371;-75
2022/01/29 13:31:26;;;;;;;;;;;5.00;99.90;;;;;;5001609;28;19936;-75
2022/01/29 13:33:53;;;;;;;;;;;5.00;99.90;;;;;;4974534;28;19992;-75
2022/01/29 13:36:32;;;;;;;;;;;5.00;99.90;;;;;;4975438;28;19926;-75
2022/01/29 13:39:05;;;;;;;;;;;5.00;99.90;;;;;;4983409;28;19926;-75
2022/01/29 13:41:32;;;;;;;;;;;5.10;99.90;;;;;;4975488;28;19942;-76
2022/01/29 13:44:07;;;;;;;;;;;5.10;99.90;;;;;;4977969;28;19922;-76
2022/01/29 13:46:33;;;;;;;;;;;5.10;99.90;;;;;;4973368;28;19929;-76
2022/01/29 13:49:02;;;;;;;;;;;5.10;99.90;;;;;;4983782;28;19929;-75
2022/01/29 13:51:34;;;;;;;;;;;5.10;99.90;;;;;;5007235;28;19933;-75
2022/01/29 13:54:02;;;;;;;;;;;5.10;99.90;;;;;;4998762;28;19921;-75
2022/01/29 13:56:29;;;;;;;;;;;5.10;99.90;;;;;;4977926;28;19930;-75
2022/01/29 13:59:01;;;;;;;;;;;5.20;99.90;;;;;;4986489;28;19967;-75
2022/01/29 14:01:40;;;;;;;;;;;5.20;99.90;;;;;;5011696;28;19932;-75
2022/01/29 14:04:08;;;;;;;;;;;5.20;99.90;;;;;;4978018;28;19928;-75
2022/01/29 14:06:54;;;;;;;;;;;5.20;99.90;;;;;;4977936;28;20221;-75
2022/01/29 14:09:24;;;;;;;;;;;5.20;99.90;;;;;;4979743;28;19921;-75
2022/01/29 14:11:56;;;;;;;;;;;5.20;99.90;;;;;;4978023;28;20304;-75
2022/01/29 14:14:24;;;;;;;;;;;5.20;99.90;;;;;;4987711;28;20360;-77
2022/01/29 14:16:51;;;;;;;;;;;5.30;99.90;;;;;;4992699;28;20243;-77
2022/01/29 14:19:19;;;;;;;;;;;5.30;99.90;;;;;;4976198;28;19922;-77
2022/01/29 14:21:48;;;;;;;;;;;5.40;99.90;;;;;;4977923;28;19965;-77
2022/01/29 14:24:16;;;;;;;;;;;5.40;99.90;;;;;;4972467;28;19922;-77
2022/01/29 14:26:42;;;;;;;;;;;5.40;99.90;;;;;;4980935;28;19922;-75
2022/01/29 14:29:09;;;;;;;;;;;5.50;99.90;;;;;;4979315;28;19940;-76
2022/01/29 14:31:36;;;;;;;;;;;5.60;99.90;;;;;;4973979;28;19929;-76
2022/01/29 14:34:05;;;;;;;;;;;5.70;99.90;;;;;;4972664;28;19967;-76
2022/01/29 14:36:32;;;;;;;;;;;5.70;99.90;;;;;;4979388;28;19929;-76
2022/01/29 14:38:59;;;;;;;;;;;5.90;99.90;;;;;;4980945;28;19930;-76
2022/01/29 14:41:25;;;;;;;;;;;6.10;99.90;;;;;;4976434;28;19937;-76
2022/01/29 14:43:52;;;;;;;;;;;6.30;99.90;;;;;;4970326;28;19925;-76
2022/01/29 14:46:19;;;;;;;;;;;6.50;99.90;;;;;;4976890;28;19934;-77
2022/01/29 14:48:48;;;;;;;;;;;6.60;99.90;;;;;;4977707;28;19957;-76
2022/01/29 14:51:15;;;;;;;;;;;6.70;99.90;;;;;;4972632;28;19953;-76
2022/01/29 14:53:43;;;;;;;;;;;6.70;99.90;;;;;;4981976;28;20020;-76
2022/01/29 14:56:17;;;;;;;;;;;6.70;99.90;;;;;;4980795;28;19921;-76
2022/01/29 14:58:44;;;;;;;;;;;6.70;99.90;;;;;;4973325;28;20304;-76